Time;durP1;ratioP1;P1;durP2;ratioP2;P2;SDS_P1;SDS_P2;PMS_P1;PMS_P2;Temp;Humidity;BMP_temperature;BMP_pressure;BME280_temperature;BME280_humidity;BME280_pressure;Samples;Min_cycle;Max_cycle;Signal;HPM_P1;HPM_P2
2021/05/26 00:00:06;;;;;;;3.28;1.13;;;;;;;;;;5006090;28;20554;-53
2021/05/26 00:02:33;;;;;;;2.65;0.90;;;;;;;;;;5010552;28;20064;-56
2021/05/26 00:05:02;;;;;;;1.65;0.95;;;;;;;;;;5002150;28;20132;-54
2021/05/26 00:07:29;;;;;;;3.13;1.35;;;;;;;;;;5010361;28;20735;-54
2021/05/26 00:09:56;;;;;;;3.97;1.00;;;;;;;;;;5006809;28;20050;-51
2021/05/26 00:12:23;;;;;;;2.55;0.70;;;;;;;;;;5003677;28;20042;-59
2021/05/26 00:14:50;;;;;;;3.40;0.93;;;;;;;;;;5010825;28;20092;-59
2021/05/26 00:17:17;;;;;;;2.65;1.00;;;;;;;;;;4994867;28;20046;-61
2021/05/26 00:19:44;;;;;;;3.42;0.88;;;;;;;;;;5005376;28;20057;-59
2021/05/26 00:22:11;;;;;;;4.68;1.10;;;;;;;;;;5008732;28;20046;-59
2021/05/26 00:24:37;;;;;;;1.83;0.70;;;;;;;;;;5010591;28;20084;-58
2021/05/26 00:27:04;;;;;;;1.60;0.90;;;;;;;;;;5007994;28;20057;-57
2021/05/26 00:29:31;;;;;;;1.52;0.75;;;;;;;;;;5003536;28;20049;-57
2021/05/26 00:31:58;;;;;;;1.83;0.77;;;;;;;;;;5011198;28;20518;-55
2021/05/26 00:34:25;;;;;;;4.25;0.90;;;;;;;;;;5010582;28;20056;-55
2021/05/26 00:37:00;;;;;;;2.83;1.00;;;;;;;;;;4998133;28;20455;-54
2021/05/26 00:39:27;;;;;;;2.05;0.90;;;;;;;;;;5004210;28;20625;-58
2021/05/26 00:41:54;;;;;;;4.00;0.80;;;;;;;;;;5010039;28;20058;-55
2021/05/26 00:44:21;;;;;;;1.50;0.80;;;;;;;;;;5010216;28;20058;-55
2021/05/26 00:46:49;;;;;;;1.42;0.90;;;;;;;;;;5007456;28;20061;-56
2021/05/26 00:49:16;;;;;;;2.75;1.02;;;;;;;;;;5009388;28;20056;-55
2021/05/26 00:51:43;;;;;;;2.67;1.00;;;;;;;;;;5009554;28;20561;-56
2021/05/26 00:54:10;;;;;;;1.70;0.90;;;;;;;;;;5011573;28;20053;-53
2021/05/26 00:56:37;;;;;;;5.85;1.25;;;;;;;;;;5005308;28;20058;-55
2021/05/26 00:59:05;;;;;;;2.30;1.08;;;;;;;;;;5008536;28;20573;-57
2021/05/26 01:01:32;;;;;;;3.75;1.20;;;;;;;;;;5010766;28;20042;-59
2021/05/26 01:04:03;;;;;;;4.60;1.50;;;;;;;;;;5009270;28;20054;-55
2021/05/26 01:06:30;;;;;;;4.13;1.30;;;;;;;;;;5008205;28;20057;-52
2021/05/26 01:08:56;;;;;;;2.65;1.02;;;;;;;;;;5009343;28;20132;-54
2021/05/26 01:11:24;;;;;;;2.28;0.90;;;;;;;;;;5009406;28;20598;-52
2021/05/26 01:13:51;;;;;;;3.28;1.20;;;;;;;;;;5009176;28;20080;-58
2021/05/26 01:16:18;;;;;;;1.88;0.80;;;;;;;;;;4994971;28;20100;-52
2021/05/26 01:18:47;;;;;;;3.08;0.90;;;;;;;;;;5007138;28;20530;-55
2021/05/26 01:21:23;;;;;;;2.25;0.73;;;;;;;;;;5007291;28;20356;-58
2021/05/26 01:23:50;;;;;;;5.45;1.20;;;;;;;;;;5009795;28;20065;-59
2021/05/26 01:26:25;;;;;;;2.83;1.17;;;;;;;;;;5006429;28;20049;-58
2021/05/26 01:28:52;;;;;;;3.45;1.17;;;;;;;;;;5004349;28;20503;-59
2021/05/26 01:31:19;;;;;;;2.72;1.10;;;;;;;;;;5010236;28;20159;-59
2021/05/26 01:34:00;;;;;;;3.15;1.08;;;;;;;;;;5008777;28;20415;-59
2021/05/26 01:36:32;;;;;;;2.25;0.95;;;;;;;;;;5006982;28;20054;-60
2021/05/26 01:39:05;;;;;;;2.72;1.17;;;;;;;;;;4999383;28;20049;-59
2021/05/26 01:41:32;;;;;;;2.50;1.08;;;;;;;;;;5010394;28;20049;-61
2021/05/26 01:44:02;;;;;;;4.20;1.52;;;;;;;;;;5004677;28;20523;-60
2021/05/26 01:46:29;;;;;;;5.57;1.48;;;;;;;;;;5001270;28;20096;-59
2021/05/26 01:48:57;;;;;;;2.05;1.00;;;;;;;;;;5009569;28;20081;-59
2021/05/26 01:51:24;;;;;;;3.50;1.15;;;;;;;;;;5008248;28;20041;-55
2021/05/26 01:53:52;;;;;;;2.20;1.08;;;;;;;;;;5002416;28;20046;-57
2021/05/26 01:56:20;;;;;;;2.47;1.00;;;;;;;;;;5013157;28;20107;-51
2021/05/26 01:58:59;;;;;;;4.28;1.58;;;;;;;;;;5010624;28;20108;-55
2021/05/26 02:01:31;;;;;;;2.75;1.10;;;;;;;;;;5013715;28;20502;-55
2021/05/26 02:03:59;;;;;;;3.08;1.00;;;;;;;;;;5011498;28;20057;-54
2021/05/26 02:06:26;;;;;;;3.47;1.15;;;;;;;;;;5011336;28;20084;-51
2021/05/26 02:08:55;;;;;;;4.10;1.20;;;;;;;;;;5005451;28;20466;-54
2021/05/26 02:14:29;;;;;;;3.63;1.38;;;;;;;;;;4988922;28;20129;-51
2021/05/26 02:16:58;;;;;;;5.32;1.00;;;;;;;;;;4974716;28;20415;-51
2021/05/26 02:19:26;;;;;;;3.08;1.42;;;;;;;;;;4998701;28;20049;-51
2021/05/26 02:21:53;;;;;;;3.05;1.00;;;;;;;;;;5011996;28;20100;-53
2021/05/26 02:24:20;;;;;;;2.78;1.00;;;;;;;;;;5007147;28;20128;-54
2021/05/26 02:26:47;;;;;;;5.68;1.08;;;;;;;;;;5012411;28;20136;-55
2021/05/26 02:29:14;;;;;;;3.28;1.42;;;;;;;;;;4992733;28;20081;-54
2021/05/26 02:31:41;;;;;;;2.60;1.02;;;;;;;;;;5012453;28;20065;-53
2021/05/26 02:34:08;;;;;;;5.13;1.30;;;;;;;;;;5010427;28;20046;-55
2021/05/26 02:36:38;;;;;;;1.98;0.85;;;;;;;;;;5015906;28;20050;-55
2021/05/26 02:39:06;;;;;;;3.13;1.15;;;;;;;;;;5004186;28;20046;-50
2021/05/26 02:41:33;;;;;;;2.05;0.82;;;;;;;;;;5012780;28;20050;-56
2021/05/26 02:44:00;;;;;;;2.35;1.15;;;;;;;;;;5003876;28;20052;-55
2021/05/26 02:46:26;;;;;;;2.28;1.17;;;;;;;;;;4998141;28;20050;-61
2021/05/26 02:48:54;;;;;;;1.90;0.90;;;;;;;;;;5011645;28;20442;-61
2021/05/26 02:51:21;;;;;;;3.05;1.00;;;;;;;;;;5011443;28;20045;-61
2021/05/26 02:53:51;;;;;;;3.05;0.90;;;;;;;;;;5005332;28;20088;-60
2021/05/26 02:56:17;;;;;;;2.00;0.70;;;;;;;;;;5013365;28;20066;-60
2021/05/26 02:59:07;;;;;;;2.63;0.80;;;;;;;;;;5009119;28;20061;-59
2021/05/26 03:01:52;;;;;;;2.50;1.00;;;;;;;;;;5011987;28;20129;-60
2021/05/26 03:04:28;;;;;;;2.00;0.90;;;;;;;;;;5012216;28;20046;-60
2021/05/26 03:06:55;;;;;;;2.17;0.80;;;;;;;;;;5011550;28;20057;-59
2021/05/26 03:09:23;;;;;;;2.95;1.10;;;;;;;;;;5009765;28;20049;-60
2021/05/26 03:11:53;;;;;;;2.35;0.90;;;;;;;;;;5012554;28;20050;-59
2021/05/26 03:14:28;;;;;;;3.90;0.90;;;;;;;;;;5003016;28;20050;-60
2021/05/26 03:17:01;;;;;;;;;;;;;;;;;;4998500;28;20116;-59
2021/05/26 03:19:29;;;;;;;1.55;0.80;;;;;;;;;;5006372;28;19925;-57
2021/05/26 03:22:12;;;;;;;2.63;0.90;;;;;;;;;;5025729;28;20137;-59
2021/05/26 03:24:58;;;;;;;2.25;0.90;;;;;;;;;;5012349;28;20045;-59
2021/05/26 03:27:34;;;;;;;3.88;0.95;;;;;;;;;;4999158;28;20058;-59
2021/05/26 03:30:05;;;;;;;2.25;1.05;;;;;;;;;;5007159;28;20120;-59
2021/05/26 03:32:32;;;;;;;3.08;0.90;;;;;;;;;;5012062;28;20444;-58
2021/05/26 03:35:00;;;;;;;3.05;0.98;;;;;;;;;;5011304;28;20052;-59
2021/05/26 03:37:28;;;;;;;1.73;1.08;;;;;;;;;;5004867;28;20057;-57
2021/05/26 03:39:55;;;;;;;1.58;0.90;;;;;;;;;;5004780;28;20045;-58
2021/05/26 03:42:22;;;;;;;1.10;0.73;;;;;;;;;;5011871;28;20050;-58
2021/05/26 03:44:50;;;;;;;2.33;0.80;;;;;;;;;;5007464;28;20129;-59
2021/05/26 03:47:17;;;;;;;2.63;1.00;;;;;;;;;;5004664;28;20049;-60
2021/05/26 03:49:44;;;;;;;2.28;0.88;;;;;;;;;;5009493;28;20077;-59
2021/05/26 03:52:11;;;;;;;2.30;1.10;;;;;;;;;;5009295;28;20048;-58
2021/05/26 03:54:43;;;;;;;1.98;1.05;;;;;;;;;;5010355;28;20211;-59
2021/05/26 03:57:10;;;;;;;3.35;1.20;;;;;;;;;;5004897;28;20053;-59
2021/05/26 03:59:38;;;;;;;6.90;1.13;;;;;;;;;;5005070;28;20060;-59
2021/05/26 04:02:05;;;;;;;2.53;1.00;;;;;;;;;;5010451;28;20419;-59
2021/05/26 04:04:33;;;;;;;2.22;0.98;;;;;;;;;;5010386;28;20095;-59
2021/05/26 04:07:05;;;;;;;2.78;0.90;;;;;;;;;;5001268;28;20116;-59
2021/05/26 04:09:33;;;;;;;3.25;1.00;;;;;;;;;;5008789;28;20056;-59
2021/05/26 04:12:00;;;;;;;2.28;1.00;;;;;;;;;;5010462;28;20050;-54
2021/05/26 04:14:45;;;;;;;4.40;1.00;;;;;;;;;;5000593;28;20603;-57
2021/05/26 04:17:30;;;;;;;2.38;0.90;;;;;;;;;;5006521;28;20507;-54
2021/05/26 04:20:05;;;;;;;2.80;1.02;;;;;;;;;;5004115;28;20056;-57
2021/05/26 04:22:34;;;;;;;2.92;1.20;;;;;;;;;;5009919;28;20054;-55
2021/05/26 04:25:02;;;;;;;2.03;0.90;;;;;;;;;;5009921;28;20046;-56
2021/05/26 04:27:29;;;;;;;3.05;1.02;;;;;;;;;;5009239;28;20050;-57
2021/05/26 04:29:58;;;;;;;2.80;0.80;;;;;;;;;;5007912;28;20573;-56
2021/05/26 04:32:25;;;;;;;6.85;1.25;;;;;;;;;;5006747;28;20042;-54
2021/05/26 04:34:52;;;;;;;7.00;1.40;;;;;;;;;;5010561;28;20109;-50
2021/05/26 04:37:19;;;;;;;1.73;0.82;;;;;;;;;;5005472;28;20129;-53
2021/05/26 04:39:47;;;;;;;3.03;1.00;;;;;;;;;;5010189;28;20526;-54
2021/05/26 04:42:14;;;;;;;1.90;0.93;;;;;;;;;;5010743;28;20061;-51
2021/05/26 04:44:40;;;;;;;3.22;1.20;;;;;;;;;;5009662;28;20092;-55
2021/05/26 04:47:07;;;;;;;2.05;1.17;;;;;;;;;;5008329;28;20049;-54
2021/05/26 04:49:34;;;;;;;2.42;1.02;;;;;;;;;;5009508;28;20522;-49
2021/05/26 04:52:01;;;;;;;2.47;1.00;;;;;;;;;;5008971;28;20160;-51
2021/05/26 04:54:29;;;;;;;2.75;1.10;;;;;;;;;;5010365;28;20046;-50
2021/05/26 04:56:58;;;;;;;3.60;1.08;;;;;;;;;;4995156;28;20483;-52
2021/05/26 04:59:24;;;;;;;2.85;0.90;;;;;;;;;;5006232;28;20104;-51
2021/05/26 05:01:51;;;;;;;3.17;1.00;;;;;;;;;;5006675;28;20096;-58
2021/05/26 05:04:18;;;;;;;3.78;1.33;;;;;;;;;;5011410;28;20046;-58
2021/05/26 05:06:45;;;;;;;2.17;1.10;;;;;;;;;;5008362;28;20074;-61
2021/05/26 05:09:12;;;;;;;3.28;0.98;;;;;;;;;;5007838;28;20058;-61
2021/05/26 05:11:39;;;;;;;2.90;1.08;;;;;;;;;;5009610;28;20049;-60
2021/05/26 05:14:06;;;;;;;1.83;0.80;;;;;;;;;;5010421;28;20042;-60
2021/05/26 05:16:33;;;;;;;3.00;0.80;;;;;;;;;;5001266;28;20050;-59
2021/05/26 05:19:00;;;;;;;3.30;1.45;;;;;;;;;;5008598;28;20050;-59
2021/05/26 05:21:30;;;;;;;2.08;1.00;;;;;;;;;;5008316;28;20088;-60
2021/05/26 05:23:57;;;;;;;2.30;0.82;;;;;;;;;;5004501;28;20443;-60
2021/05/26 05:26:23;;;;;;;3.22;1.10;;;;;;;;;;5000085;28;20076;-61
2021/05/26 05:28:50;;;;;;;2.70;1.00;;;;;;;;;;5010039;28;20060;-55
2021/05/26 05:31:17;;;;;;;3.08;1.15;;;;;;;;;;5014237;28;20054;-52
2021/05/26 05:33:44;;;;;;;2.78;1.00;;;;;;;;;;5014108;28;20248;-52
2021/05/26 05:36:12;;;;;;;2.22;1.10;;;;;;;;;;5012845;28;20045;-53
2021/05/26 05:38:39;;;;;;;4.00;1.10;;;;;;;;;;5008810;28;20412;-54
2021/05/26 05:41:05;;;;;;;2.40;0.90;;;;;;;;;;5012886;28;20068;-52
2021/05/26 05:43:32;;;;;;;3.03;1.00;;;;;;;;;;5006182;28;20077;-51
2021/05/26 05:46:01;;;;;;;2.80;0.85;;;;;;;;;;5012920;28;20100;-56
2021/05/26 05:48:28;;;;;;;3.10;1.00;;;;;;;;;;5011996;28;20065;-51
2021/05/26 05:50:55;;;;;;;3.00;0.90;;;;;;;;;;5012547;28;20061;-52
2021/05/26 05:53:22;;;;;;;4.72;1.10;;;;;;;;;;5013481;28;20125;-52
2021/05/26 05:55:49;;;;;;;3.60;1.20;;;;;;;;;;5012778;28;20050;-54
2021/05/26 05:58:22;;;;;;;5.10;1.27;;;;;;;;;;5007469;28;20047;-54
2021/05/26 06:00:49;;;;;;;2.35;0.95;;;;;;;;;;5010464;28;20057;-50
2021/05/26 06:03:16;;;;;;;4.50;1.10;;;;;;;;;;5012301;28;20081;-52
2021/05/26 06:05:43;;;;;;;3.17;1.00;;;;;;;;;;5013531;28;20085;-51
2021/05/26 06:08:10;;;;;;;2.22;1.17;;;;;;;;;;5013918;28;20419;-53
2021/05/26 06:10:37;;;;;;;2.20;0.90;;;;;;;;;;5013893;28;20050;-52
2021/05/26 06:13:07;;;;;;;4.22;1.90;;;;;;;;;;5012951;28;20053;-50
2021/05/26 06:15:35;;;;;;;2.28;1.08;;;;;;;;;;4998353;28;20062;-52
2021/05/26 06:18:02;;;;;;;1.88;0.80;;;;;;;;;;4998218;28;20134;-52
2021/05/26 06:20:29;;;;;;;2.22;0.73;;;;;;;;;;5013832;28;20050;-50
2021/05/26 06:22:56;;;;;;;2.15;0.80;;;;;;;;;;5003752;28;20065;-53
2021/05/26 06:25:23;;;;;;;6.95;1.00;;;;;;;;;;5011296;28;20392;-50
2021/05/26 06:27:50;;;;;;;2.95;1.00;;;;;;;;;;5012508;28;20141;-51
2021/05/26 06:30:17;;;;;;;1.10;0.65;;;;;;;;;;5010695;28;20053;-52
2021/05/26 06:32:44;;;;;;;1.50;0.90;;;;;;;;;;5013503;28;20527;-49
2021/05/26 06:35:12;;;;;;;3.20;0.88;;;;;;;;;;5013861;28;20070;-50
2021/05/26 06:37:38;;;;;;;2.15;0.90;;;;;;;;;;4999722;28;20054;-48
2021/05/26 06:40:05;;;;;;;1.67;1.00;;;;;;;;;;5003479;28;20050;-49
2021/05/26 06:42:32;;;;;;;0.95;0.60;;;;;;;;;;5013177;28;20153;-51
2021/05/26 06:45:00;;;;;;;2.60;0.80;;;;;;;;;;5013323;28;20448;-53
2021/05/26 06:47:27;;;;;;;1.95;1.00;;;;;;;;;;5011781;28;20049;-50
2021/05/26 06:49:54;;;;;;;2.08;0.70;;;;;;;;;;5012855;28;20050;-50
2021/05/26 06:52:21;;;;;;;2.30;0.80;;;;;;;;;;5013362;28;20054;-55
2021/05/26 06:54:48;;;;;;;2.90;0.70;;;;;;;;;;4999691;28;20499;-52
2021/05/26 06:57:17;;;;;;;2.88;0.75;;;;;;;;;;5002995;28;20054;-53
2021/05/26 06:59:44;;;;;;;2.30;0.88;;;;;;;;;;5010989;28;20746;-50
2021/05/26 07:02:11;;;;;;;3.33;0.98;;;;;;;;;;5009453;28;20049;-55
2021/05/26 07:04:38;;;;;;;1.70;0.65;;;;;;;;;;5013522;28;20061;-51
2021/05/26 07:07:04;;;;;;;1.63;0.70;;;;;;;;;;5002600;28;20089;-51
2021/05/26 07:09:32;;;;;;;1.67;0.60;;;;;;;;;;5004488;28;20113;-52
2021/05/26 07:11:59;;;;;;;2.00;0.70;;;;;;;;;;5006465;28;20049;-51
2021/05/26 07:14:27;;;;;;;2.30;0.90;;;;;;;;;;5008600;28;20553;-52
2021/05/26 07:16:54;;;;;;;2.28;0.70;;;;;;;;;;5025631;28;20057;-52
2021/05/26 07:19:21;;;;;;;1.65;0.80;;;;;;;;;;5012773;28;20046;-49
2021/05/26 07:21:49;;;;;;;2.15;1.00;;;;;;;;;;5002618;28;20046;-51
2021/05/26 07:24:16;;;;;;;1.50;0.80;;;;;;;;;;5006221;28;20061;-49
2021/05/26 07:26:43;;;;;;;1.38;0.65;;;;;;;;;;5003703;28;20427;-51
2021/05/26 07:29:10;;;;;;;2.88;0.80;;;;;;;;;;5003435;28;20054;-51
2021/05/26 07:31:38;;;;;;;2.95;1.02;;;;;;;;;;5009072;28;20089;-55
2021/05/26 07:34:04;;;;;;;1.75;0.73;;;;;;;;;;5011980;28;20115;-49
2021/05/26 07:36:36;;;;;;;0.95;0.50;;;;;;;;;;5006222;28;20045;-55
2021/05/26 07:39:04;;;;;;;2.30;0.70;;;;;;;;;;5013982;28;20048;-50
2021/05/26 07:41:31;;;;;;;1.88;0.60;;;;;;;;;;5012540;28;20045;-50
2021/05/26 07:43:58;;;;;;;2.15;0.80;;;;;;;;;;5002071;28;20054;-52
2021/05/26 07:46:25;;;;;;;3.40;1.08;;;;;;;;;;4993412;28;20058;-52
2021/05/26 07:48:52;;;;;;;3.33;0.85;;;;;;;;;;4996290;28;20116;-53
2021/05/26 07:51:27;;;;;;;2.20;0.90;;;;;;;;;;5009876;28;20132;-48
2021/05/26 07:53:54;;;;;;;1.35;0.70;;;;;;;;;;5011553;28;20053;-54
2021/05/26 07:56:21;;;;;;;3.33;0.80;;;;;;;;;;5026668;28;20080;-50
2021/05/26 07:58:48;;;;;;;3.92;0.73;;;;;;;;;;5005263;28;20057;-52
2021/05/26 08:01:15;;;;;;;3.00;0.73;;;;;;;;;;5022147;28;20511;-51
2021/05/26 08:03:42;;;;;;;2.40;0.80;;;;;;;;;;5011353;28;20077;-53
2021/05/26 08:06:12;;;;;;;1.75;0.70;;;;;;;;;;5010663;28;20092;-50
2021/05/26 08:08:39;;;;;;;2.13;0.90;;;;;;;;;;5011376;28;20068;-48
2021/05/26 08:11:07;;;;;;;2.55;1.20;;;;;;;;;;5006426;28;20129;-48
2021/05/26 08:13:34;;;;;;;4.22;0.80;;;;;;;;;;5010644;28;20046;-47
2021/05/26 08:16:01;;;;;;;1.30;0.60;;;;;;;;;;5009757;28;20112;-48
2021/05/26 08:18:28;;;;;;;2.65;0.70;;;;;;;;;;5006803;28;20046;-48
2021/05/26 08:20:55;;;;;;;4.43;0.70;;;;;;;;;;5005183;28;20093;-49
2021/05/26 08:23:23;;;;;;;1.45;0.80;;;;;;;;;;5009666;28;20093;-48
2021/05/26 08:25:49;;;;;;;1.80;0.82;;;;;;;;;;5012488;28;20054;-48
2021/05/26 08:28:16;;;;;;;3.33;0.88;;;;;;;;;;5004127;28;20543;-48
2021/05/26 08:30:45;;;;;;;1.45;0.73;;;;;;;;;;5011091;28;20067;-44
2021/05/26 08:33:12;;;;;;;3.00;0.60;;;;;;;;;;5004917;28;20144;-43
2021/05/26 08:35:39;;;;;;;2.30;1.00;;;;;;;;;;5011623;28;20104;-44
2021/05/26 08:38:06;;;;;;;2.40;0.80;;;;;;;;;;5009948;28;20070;-46
2021/05/26 08:40:33;;;;;;;3.60;0.80;;;;;;;;;;5011733;28;20510;-49
2021/05/26 08:43:01;;;;;;;1.38;0.70;;;;;;;;;;5011433;28;20049;-46
2021/05/26 08:45:28;;;;;;;1.95;0.82;;;;;;;;;;5001079;28;20503;-43
2021/05/26 08:47:59;;;;;;;2.83;0.82;;;;;;;;;;5010549;28;20081;-44
2021/05/26 08:50:26;;;;;;;5.75;0.90;;;;;;;;;;5005806;28;20048;-45
2021/05/26 08:52:52;;;;;;;2.47;0.88;;;;;;;;;;5005460;28;20056;-43
2021/05/26 08:55:19;;;;;;;1.58;0.60;;;;;;;;;;5011822;28;20038;-46
2021/05/26 08:57:46;;;;;;;2.15;0.70;;;;;;;;;;5006433;28;20042;-48
2021/05/26 09:00:13;;;;;;;3.78;2.00;;;;;;;;;;5005686;28;20084;-51
2021/05/26 09:02:40;;;;;;;2.60;1.00;;;;;;;;;;5010689;28;20052;-46
2021/05/26 09:05:25;;;;;;;0.57;0.57;;;;;;;;;;5010678;28;20133;-49
2021/05/26 09:07:52;;;;;;;2.95;1.30;;;;;;;;;;4991587;28;20081;-48
2021/05/26 09:10:20;;;;;;;1.25;0.70;;;;;;;;;;5005800;28;20505;-52
2021/05/26 09:12:48;;;;;;;3.78;1.35;;;;;;;;;;5009472;28;20053;-46
2021/05/26 09:15:16;;;;;;;5.15;1.05;;;;;;;;;;5011365;28;20037;-50
2021/05/26 09:17:54;;;;;;;5.13;1.10;;;;;;;;;;5008826;28;20517;-54
2021/05/26 09:20:26;;;;;;;3.58;1.23;;;;;;;;;;5004551;28;20107;-44
2021/05/26 09:22:56;;;;;;;4.15;1.10;;;;;;;;;;5009539;28;20510;-47
2021/05/26 09:25:23;;;;;;;3.05;0.93;;;;;;;;;;5008940;28;20060;-47
2021/05/26 09:27:50;;;;;;;2.50;1.10;;;;;;;;;;5008577;28;20129;-47
2021/05/26 09:30:30;;;;;;;2.60;1.00;;;;;;;;;;5000295;28;20054;-47
2021/05/26 09:32:57;;;;;;;3.17;0.70;;;;;;;;;;5002180;28;20065;-53
2021/05/26 09:35:23;;;;;;;1.27;0.70;;;;;;;;;;5008135;28;20133;-45
2021/05/26 09:37:55;;;;;;;1.45;1.02;;;;;;;;;;5007206;28;20073;-46
2021/05/26 09:40:22;;;;;;;2.03;0.85;;;;;;;;;;4993325;28;20431;-46
2021/05/26 09:42:50;;;;;;;2.67;1.10;;;;;;;;;;5009588;28;20046;-50
2021/05/26 09:45:18;;;;;;;3.00;2.00;;;;;;;;;;5000687;28;20053;-46
2021/05/26 09:47:46;;;;;;;3.60;1.25;;;;;;;;;;5010509;28;20046;-45
2021/05/26 09:50:33;;;;;;;3.17;1.10;;;;;;;;;;5010462;28;20226;-49
2021/05/26 09:53:01;;;;;;;2.97;1.15;;;;;;;;;;4999895;28;20069;-47
2021/05/26 09:55:30;;;;;;;2.25;0.95;;;;;;;;;;5011750;28;20456;-45
2021/05/26 09:57:57;;;;;;;2.97;1.15;;;;;;;;;;5009271;28;20503;-45
2021/05/26 10:00:25;;;;;;;3.03;0.70;;;;;;;;;;5011350;28;20129;-47
2021/05/26 10:02:52;;;;;;;1.27;0.80;;;;;;;;;;5009290;28;20038;-47
2021/05/26 10:05:20;;;;;;;2.80;1.00;;;;;;;;;;5011515;28;20073;-46
2021/05/26 10:08:12;;;;;;;2.20;1.00;;;;;;;;;;5008611;28;20125;-46
2021/05/26 10:10:48;;;;;;;3.97;0.88;;;;;;;;;;5008210;28;20049;-46
2021/05/26 10:13:18;;;;;;;2.10;0.90;;;;;;;;;;5015852;28;20046;-45
2021/05/26 10:15:48;;;;;;;1.88;0.90;;;;;;;;;;5005226;28;20042;-45
2021/05/26 10:18:17;;;;;;;3.95;0.95;;;;;;;;;;5006367;28;20038;-49
2021/05/26 10:20:45;;;;;;;3.05;0.85;;;;;;;;;;5012930;28;20133;-47
2021/05/26 10:23:16;;;;;;;2.92;0.77;;;;;;;;;;5014521;28;20069;-49
2021/05/26 10:25:44;;;;;;;3.30;1.00;;;;;;;;;;5011167;28;20052;-48
2021/05/26 10:28:33;;;;;;;2.42;0.90;;;;;;;;;;5012014;28;20046;-54
2021/05/26 10:31:02;;;;;;;4.10;1.00;;;;;;;;;;5011492;28;20061;-49
2021/05/26 10:33:44;;;;;;;3.65;1.00;;;;;;;;;;5011928;28;20046;-55
2021/05/26 10:36:11;;;;;;;2.55;1.42;;;;;;;;;;5011955;28;20507;-54
2021/05/26 10:38:58;;;;;;;2.10;1.00;;;;;;;;;;5007171;28;20050;-51
2021/05/26 10:41:26;;;;;;;13.63;2.33;;;;;;;;;;4994780;28;20501;-48
2021/05/26 10:43:54;;;;;;;3.13;1.00;;;;;;;;;;5010340;28;20076;-47
2021/05/26 10:46:31;;;;;;;3.17;0.90;;;;;;;;;;5009569;28;20050;-46
2021/05/26 10:48:58;;;;;;;11.40;2.17;;;;;;;;;;4995602;28;20499;-44
2021/05/26 10:51:45;;;;;;;3.97;1.00;;;;;;;;;;5014021;28;20507;-47
2021/05/26 10:54:32;;;;;;;4.55;1.08;;;;;;;;;;5006753;28;20479;-45
2021/05/26 10:56:59;;;;;;;3.42;1.08;;;;;;;;;;5011987;28;20062;-47
2021/05/26 10:59:25;;;;;;;4.40;1.10;;;;;;;;;;5008033;28;20415;-45
2021/05/26 11:02:07;;;;;;;3.55;1.00;;;;;;;;;;5007778;28;20053;-50
2021/05/26 11:04:35;;;;;;;3.17;1.10;;;;;;;;;;4994977;28;20058;-49
2021/05/26 11:07:18;;;;;;;3.58;1.10;;;;;;;;;;5004688;28;20646;-45
2021/05/26 11:09:54;;;;;;;3.45;0.80;;;;;;;;;;5013863;28;20152;-49
2021/05/26 11:12:21;;;;;;;3.10;0.90;;;;;;;;;;5014098;28;20061;-43
2021/05/26 11:14:53;;;;;;;1.27;0.80;;;;;;;;;;5013582;28;20042;-48
2021/05/26 11:17:25;;;;;;;7.55;4.53;;;;;;;;;;5002775;28;20062;-44
2021/05/26 11:20:05;;;;;;;3.83;1.00;;;;;;;;;;5011072;28;20203;-45
2021/05/26 11:22:32;;;;;;;3.00;0.90;;;;;;;;;;5007806;28;20092;-45
2021/05/26 11:24:59;;;;;;;3.33;0.82;;;;;;;;;;5007902;28;20053;-52
2021/05/26 11:27:29;;;;;;;3.17;0.88;;;;;;;;;;5012294;28;20054;-50
2021/05/26 11:30:00;;;;;;;3.92;0.90;;;;;;;;;;5000101;28;20557;-53
2021/05/26 11:32:27;;;;;;;2.90;0.82;;;;;;;;;;5009373;28;20054;-46
2021/05/26 11:34:54;;;;;;;3.40;1.02;;;;;;;;;;5013363;28;20069;-48
2021/05/26 11:37:24;;;;;;;3.97;0.90;;;;;;;;;;5011128;28;20045;-53
2021/05/26 11:39:51;;;;;;;1.80;0.90;;;;;;;;;;5007320;28;20578;-46
2021/05/26 11:42:19;;;;;;;1.83;0.65;;;;;;;;;;5011264;28;20058;-50
2021/05/26 11:45:01;;;;;;;2.75;1.00;;;;;;;;;;5013301;28;20078;-48
2021/05/26 11:47:29;;;;;;;1.02;0.60;;;;;;;;;;5011764;28;20050;-53
2021/05/26 11:49:58;;;;;;;1.25;0.60;;;;;;;;;;5013100;28;20080;-51
2021/05/26 11:52:25;;;;;;;1.27;0.75;;;;;;;;;;5013297;28;20064;-53
2021/05/26 11:54:56;;;;;;;2.53;0.73;;;;;;;;;;4997631;28;20451;-51
2021/05/26 11:57:35;;;;;;;6.00;0.90;;;;;;;;;;4993713;28;20504;-50
2021/05/26 12:00:07;;;;;;;6.50;0.82;;;;;;;;;;5011102;28;20073;-51
2021/05/26 12:02:52;;;;;;;2.58;0.70;;;;;;;;;;5013103;28;20523;-55
2021/05/26 12:05:39;;;;;;;2.65;1.02;;;;;;;;;;5012927;28;20136;-51
2021/05/26 12:08:16;;;;;;;1.38;0.75;;;;;;;;;;5009590;28;20066;-51
2021/05/26 12:10:44;;;;;;;1.85;0.77;;;;;;;;;;4992987;28;20061;-51
2021/05/26 12:13:11;;;;;;;1.50;0.70;;;;;;;;;;4993114;28;20120;-53
2021/05/26 12:15:38;;;;;;;2.90;0.90;;;;;;;;;;4993127;28;20113;-49
2021/05/26 12:18:06;;;;;;;3.90;0.98;;;;;;;;;;4994122;28;20058;-50
2021/05/26 12:20:33;;;;;;;1.50;0.80;;;;;;;;;;5012443;28;20049;-54
2021/05/26 12:23:00;;;;;;;2.05;0.90;;;;;;;;;;5011788;28;20054;-55
2021/05/26 12:25:47;;;;;;;1.65;0.88;;;;;;;;;;5013040;28;20074;-48
2021/05/26 12:28:18;;;;;;;5.22;1.50;;;;;;;;;;4993967;28;20057;-52
2021/05/26 12:30:46;;;;;;;4.07;1.65;;;;;;;;;;4992926;28;20133;-51
2021/05/26 12:33:15;;;;;;;3.70;1.70;;;;;;;;;;4993091;28;20058;-50
2021/05/26 12:35:42;;;;;;;3.38;1.08;;;;;;;;;;4992913;28;20050;-52
2021/05/26 12:38:19;;;;;;;3.47;1.30;;;;;;;;;;4992116;28;20042;-51
2021/05/26 12:40:46;;;;;;;4.50;1.17;;;;;;;;;;4994968;28;20042;-51
2021/05/26 12:43:24;;;;;;;4.90;1.10;;;;;;;;;;5010844;28;20116;-45
2021/05/26 12:45:51;;;;;;;4.13;1.27;;;;;;;;;;5006403;28;20507;-50
2021/05/26 12:48:18;;;;;;;3.88;1.48;;;;;;;;;;5009844;28;20038;-50
2021/05/26 12:50:46;;;;;;;3.22;1.40;;;;;;;;;;4992687;28;20058;-48
2021/05/26 12:53:16;;;;;;;3.15;1.40;;;;;;;;;;5007400;28;20093;-49
2021/05/26 12:55:43;;;;;;;4.47;1.88;;;;;;;;;;5012420;28;20041;-53
2021/05/26 12:58:14;;;;;;;4.13;1.30;;;;;;;;;;5007273;28;20594;-50
2021/05/26 13:00:41;;;;;;;5.05;1.38;;;;;;;;;;4991530;28;20042;-50
2021/05/26 13:03:15;;;;;;;5.72;1.42;;;;;;;;;;5007992;28;20439;-51
2021/05/26 13:05:44;;;;;;;6.18;1.50;;;;;;;;;;4993516;28;20055;-48
2021/05/26 13:08:12;;;;;;;4.28;1.50;;;;;;;;;;4995751;28;20046;-52
2021/05/26 13:10:55;;;;;;;6.10;1.90;;;;;;;;;;4992399;28;20124;-51
2021/05/26 13:13:22;;;;;;;6.57;2.08;;;;;;;;;;4992221;28;20133;-50
2021/05/26 13:15:51;;;;;;;5.03;1.73;;;;;;;;;;4992130;28;20480;-47
2021/05/26 13:18:19;;;;;;;5.22;1.83;;;;;;;;;;5004206;28;20588;-49
2021/05/26 13:20:47;;;;;;;5.80;1.90;;;;;;;;;;5011624;28;20053;-51
2021/05/26 13:23:15;;;;;;;8.55;1.70;;;;;;;;;;5012172;28;20131;-49
2021/05/26 13:25:43;;;;;;;4.72;1.75;;;;;;;;;;5008281;28;20070;-47
2021/05/26 13:28:11;;;;;;;4.50;1.60;;;;;;;;;;4993951;28;20055;-49
2021/05/26 13:30:39;;;;;;;5.25;1.77;;;;;;;;;;5011763;28;20053;-52
2021/05/26 13:33:06;;;;;;;4.68;1.90;;;;;;;;;;5011589;28;20133;-53
2021/05/26 13:35:33;;;;;;;6.47;1.75;;;;;;;;;;5011352;28;20046;-50
2021/05/26 13:38:02;;;;;;;6.38;1.50;;;;;;;;;;5004473;28;20571;-50
2021/05/26 13:40:29;;;;;;;4.13;1.75;;;;;;;;;;4994714;28;20046;-50
2021/05/26 13:42:57;;;;;;;5.97;1.95;;;;;;;;;;5011565;28;20522;-48
2021/05/26 13:45:24;;;;;;;5.20;1.70;;;;;;;;;;5010237;28;20053;-47
2021/05/26 13:47:51;;;;;;;5.60;1.70;;;;;;;;;;5004011;28;20492;-51
2021/05/26 13:50:18;;;;;;;8.45;1.85;;;;;;;;;;5003022;28;20058;-49
2021/05/26 13:52:59;;;;;;;7.57;2.25;;;;;;;;;;5013807;28;20053;-47
2021/05/26 13:55:26;;;;;;;6.43;2.35;;;;;;;;;;5013284;28;20061;-47
2021/05/26 13:57:54;;;;;;;7.30;2.25;;;;;;;;;;5012522;28;20495;-53
2021/05/26 14:00:23;;;;;;;6.70;1.98;;;;;;;;;;4996844;28;20074;-48
2021/05/26 14:02:53;;;;;;;10.95;2.22;;;;;;;;;;5012426;28;20061;-50
2021/05/26 14:05:21;;;;;;;5.35;1.52;;;;;;;;;;5014717;28;20473;-45
2021/05/26 14:07:49;;;;;;;7.25;1.88;;;;;;;;;;5010604;28;20042;-47
2021/05/26 14:10:17;;;;;;;5.03;2.00;;;;;;;;;;5007851;28;20141;-52
2021/05/26 14:12:44;;;;;;;4.57;1.75;;;;;;;;;;5008631;28;20042;-49
2021/05/26 14:15:12;;;;;;;5.22;1.90;;;;;;;;;;5009919;28;20041;-48
2021/05/26 14:17:39;;;;;;;5.43;2.15;;;;;;;;;;5010252;28;20057;-45
2021/05/26 14:20:07;;;;;;;4.03;1.50;;;;;;;;;;5012009;28;20171;-48
2021/05/26 14:22:40;;;;;;;5.57;1.60;;;;;;;;;;5015034;28;20052;-50
2021/05/26 14:25:09;;;;;;;6.22;1.60;;;;;;;;;;5014657;28;20058;-47
2021/05/26 14:27:36;;;;;;;7.60;2.10;;;;;;;;;;5014407;28;20120;-45
2021/05/26 14:30:21;;;;;;;6.00;1.67;;;;;;;;;;4994101;28;20050;-46
2021/05/26 14:32:49;;;;;;;4.20;2.00;;;;;;;;;;4995443;28;20201;-49
2021/05/26 14:35:18;;;;;;;4.32;1.70;;;;;;;;;;4995141;28;20051;-48
2021/05/26 14:37:50;;;;;;;8.27;2.00;;;;;;;;;;4994632;28;20054;-48
2021/05/26 14:40:17;;;;;;;5.57;1.60;;;;;;;;;;4995651;28;20130;-49
2021/05/26 14:42:44;;;;;;;8.07;2.08;;;;;;;;;;4995520;28;20125;-45
2021/05/26 14:45:12;;;;;;;5.72;1.95;;;;;;;;;;4993562;28;20125;-46
2021/05/26 14:47:41;;;;;;;6.78;2.10;;;;;;;;;;4994964;28;20061;-47
2021/05/26 14:50:11;;;;;;;6.35;2.55;;;;;;;;;;4994705;28;20109;-46
2021/05/26 14:52:38;;;;;;;6.15;2.40;;;;;;;;;;4994632;28;20508;-47
2021/05/26 14:55:06;;;;;;;7.18;2.70;;;;;;;;;;4994815;28;20042;-46
2021/05/26 14:57:33;;;;;;;8.23;2.40;;;;;;;;;;4994815;28;20043;-52